sensor_id;sensor_type;location;lat;lon;timestamp;P1;durP1;ratioP1;P2;durP2;ratioP2
20140;SDS011;10231;47.702;9.826;2023-08-01T00:00:00;2.67;;;2.47;;
20140;SDS011;10231;47.702;9.826;2023-08-01T00:02:28;2.70;;;2.50;;
20140;SDS011;10231;47.702;9.826;2023-08-01T00:04:54;3.03;;;2.57;;
20140;SDS011;10231;47.702;9.826;2023-08-01T00:07:19;4.80;;;2.77;;
20140;SDS011;10231;47.702;9.826;2023-08-01T00:09:45;2.57;;;2.37;;
20140;SDS011;10231;47.702;9.826;2023-08-01T00:12:10;2.37;;;2.17;;
20140;SDS011;10231;47.702;9.826;2023-08-01T00:14:36;3.80;;;2.47;;
20140;SDS011;10231;47.702;9.826;2023-08-01T00:17:02;4.03;;;3.07;;
20140;SDS011;10231;47.702;9.826;2023-08-01T00:19:28;3.73;;;2.67;;
20140;SDS011;10231;47.702;9.826;2023-08-01T00:21:53;3.07;;;2.80;;
20140;SDS011;10231;47.702;9.826;2023-08-01T00:24:19;4.27;;;3.03;;
20140;SDS011;10231;47.702;9.826;2023-08-01T00:26:44;4.13;;;2.50;;
20140;SDS011;10231;47.702;9.826;2023-08-01T00:29:10;3.33;;;3.03;;
20140;SDS011;10231;47.702;9.826;2023-08-01T00:31:36;2.83;;;2.63;;
20140;SDS011;10231;47.702;9.826;2023-08-01T00:34:01;3.23;;;2.93;;
20140;SDS011;10231;47.702;9.826;2023-08-01T00:36:27;2.87;;;2.60;;
20140;SDS011;10231;47.702;9.826;2023-08-01T00:38:52;2.87;;;2.67;;
20140;SDS011;10231;47.702;9.826;2023-08-01T00:41:18;3.77;;;2.90;;
20140;SDS011;10231;47.702;9.826;2023-08-01T00:43:44;4.67;;;2.97;;
20140;SDS011;10231;47.702;9.826;2023-08-01T00:46:09;3.30;;;3.00;;
20140;SDS011;10231;47.702;9.826;2023-08-01T00:48:35;3.80;;;3.17;;
20140;SDS011;10231;47.702;9.826;2023-08-01T00:51:03;5.87;;;3.17;;
20140;SDS011;10231;47.702;9.826;2023-08-01T00:53:30;3.60;;;3.30;;
20140;SDS011;10231;47.702;9.826;2023-08-01T00:55:57;3.57;;;2.63;;
20140;SDS011;10231;47.702;9.826;2023-08-01T00:58:23;3.97;;;2.77;;
20140;SDS011;10231;47.702;9.826;2023-08-01T01:00:49;4.10;;;2.93;;
20140;SDS011;10231;47.702;9.826;2023-08-01T01:03:15;3.00;;;2.70;;
20140;SDS011;10231;47.702;9.826;2023-08-01T01:05:47;5.40;;;3.27;;
20140;SDS011;10231;47.702;9.826;2023-08-01T01:08:18;3.33;;;2.87;;
20140;SDS011;10231;47.702;9.826;2023-08-01T01:10:45;4.03;;;3.10;;
20140;SDS011;10231;47.702;9.826;2023-08-01T01:13:10;2.93;;;2.70;;
20140;SDS011;10231;47.702;9.826;2023-08-01T01:15:36;3.47;;;2.83;;
20140;SDS011;10231;47.702;9.826;2023-08-01T01:18:01;4.97;;;2.57;;
20140;SDS011;10231;47.702;9.826;2023-08-01T01:20:30;2.97;;;2.60;;
20140;SDS011;10231;47.702;9.826;2023-08-01T01:22:59;2.80;;;2.60;;
20140;SDS011;10231;47.702;9.826;2023-08-01T01:25:26;2.90;;;2.70;;
20140;SDS011;10231;47.702;9.826;2023-08-01T01:27:53;2.70;;;2.50;;
20140;SDS011;10231;47.702;9.826;2023-08-01T01:30:19;2.90;;;2.60;;
20140;SDS011;10231;47.702;9.826;2023-08-01T01:32:46;3.77;;;2.63;;
20140;SDS011;10231;47.702;9.826;2023-08-01T01:35:12;3.07;;;2.83;;
20140;SDS011;10231;47.702;9.826;2023-08-01T01:37:37;3.60;;;2.10;;
20140;SDS011;10231;47.702;9.826;2023-08-01T01:40:03;2.87;;;2.67;;
20140;SDS011;10231;47.702;9.826;2023-08-01T01:42:29;2.87;;;2.50;;
20140;SDS011;10231;47.702;9.826;2023-08-01T01:44:54;6.80;;;3.83;;
20140;SDS011;10231;47.702;9.826;2023-08-01T01:47:20;3.30;;;3.00;;
20140;SDS011;10231;47.702;9.826;2023-08-01T01:49:45;3.83;;;2.90;;
20140;SDS011;10231;47.702;9.826;2023-08-01T01:52:11;3.43;;;2.90;;
20140;SDS011;10231;47.702;9.826;2023-08-01T01:54:36;2.90;;;2.63;;
20140;SDS011;10231;47.702;9.826;2023-08-01T01:57:02;3.00;;;2.70;;
20140;SDS011;10231;47.702;9.826;2023-08-01T01:59:27;2.73;;;2.23;;
20140;SDS011;10231;47.702;9.826;2023-08-01T02:01:53;3.47;;;2.53;;
20140;SDS011;10231;47.702;9.826;2023-08-01T02:04:18;3.43;;;2.97;;
20140;SDS011;10231;47.702;9.826;2023-08-01T02:06:45;3.53;;;2.50;;
20140;SDS011;10231;47.702;9.826;2023-08-01T02:09:10;3.90;;;2.93;;
20140;SDS011;10231;47.702;9.826;2023-08-01T02:11:36;3.90;;;3.13;;
20140;SDS011;10231;47.702;9.826;2023-08-01T02:14:01;3.70;;;2.50;;
20140;SDS011;10231;47.702;9.826;2023-08-01T02:16:28;2.73;;;2.53;;
20140;SDS011;10231;47.702;9.826;2023-08-01T02:18:53;2.77;;;2.57;;
20140;SDS011;10231;47.702;9.826;2023-08-01T02:21:19;3.73;;;2.63;;
20140;SDS011;10231;47.702;9.826;2023-08-01T02:23:44;3.07;;;2.53;;
20140;SDS011;10231;47.702;9.826;2023-08-01T02:26:10;2.83;;;2.63;;
20140;SDS011;10231;47.702;9.826;2023-08-01T02:28:35;3.97;;;2.50;;
20140;SDS011;10231;47.702;9.826;2023-08-01T02:31:01;3.57;;;2.67;;
20140;SDS011;10231;47.702;9.826;2023-08-01T02:33:26;2.83;;;2.30;;
20140;SDS011;10231;47.702;9.826;2023-08-01T02:35:52;3.10;;;2.47;;
20140;SDS011;10231;47.702;9.826;2023-08-01T02:38:18;2.60;;;2.40;;
20140;SDS011;10231;47.702;9.826;2023-08-01T02:40:43;4.07;;;2.80;;
20140;SDS011;10231;47.702;9.826;2023-08-01T02:43:09;3.03;;;2.40;;
20140;SDS011;10231;47.702;9.826;2023-08-01T02:45:34;3.10;;;2.80;;
20140;SDS011;10231;47.702;9.826;2023-08-01T02:48:00;2.80;;;2.47;;
20140;SDS011;10231;47.702;9.826;2023-08-01T02:50:25;3.03;;;2.40;;
20140;SDS011;10231;47.702;9.826;2023-08-01T02:52:51;3.10;;;2.80;;
20140;SDS011;10231;47.702;9.826;2023-08-01T02:55:16;3.07;;;2.40;;
20140;SDS011;10231;47.702;9.826;2023-08-01T02:57:42;3.70;;;2.60;;
20140;SDS011;10231;47.702;9.826;2023-08-01T03:00:08;3.43;;;3.00;;
20140;SDS011;10231;47.702;9.826;2023-08-01T03:02:36;3.23;;;2.77;;
20140;SDS011;10231;47.702;9.826;2023-08-01T03:05:04;3.67;;;2.73;;
20140;SDS011;10231;47.702;9.826;2023-08-01T03:07:33;3.03;;;2.73;;
20140;SDS011;10231;47.702;9.826;2023-08-01T03:09:58;3.37;;;3.07;;
20140;SDS011;10231;47.702;9.826;2023-08-01T03:12:24;2.70;;;2.50;;
20140;SDS011;10231;47.702;9.826;2023-08-01T03:14:49;2.40;;;2.30;;
20140;SDS011;10231;47.702;9.826;2023-08-01T03:17:15;4.17;;;3.00;;
20140;SDS011;10231;47.702;9.826;2023-08-01T03:19:41;3.47;;;2.23;;
20140;SDS011;10231;47.702;9.826;2023-08-01T03:22:07;2.97;;;2.70;;
20140;SDS011;10231;47.702;9.826;2023-08-01T03:24:34;3.83;;;2.90;;
20140;SDS011;10231;47.702;9.826;2023-08-01T03:26:59;2.43;;;2.30;;
20140;SDS011;10231;47.702;9.826;2023-08-01T03:29:25;4.50;;;2.53;;
20140;SDS011;10231;47.702;9.826;2023-08-01T03:31:50;3.63;;;2.93;;
20140;SDS011;10231;47.702;9.826;2023-08-01T03:34:16;3.53;;;2.87;;
20140;SDS011;10231;47.702;9.826;2023-08-01T03:36:41;3.20;;;2.40;;
20140;SDS011;10231;47.702;9.826;2023-08-01T03:39:07;4.07;;;2.90;;
20140;SDS011;10231;47.702;9.826;2023-08-01T03:41:35;5.73;;;2.93;;
20140;SDS011;10231;47.702;9.826;2023-08-01T03:44:00;4.33;;;2.83;;
20140;SDS011;10231;47.702;9.826;2023-08-01T03:46:26;4.97;;;3.10;;
20140;SDS011;10231;47.702;9.826;2023-08-01T03:48:52;3.87;;;2.97;;
20140;SDS011;10231;47.702;9.826;2023-08-01T03:51:17;4.40;;;2.70;;
20140;SDS011;10231;47.702;9.826;2023-08-01T03:53:44;3.27;;;3.07;;
20140;SDS011;10231;47.702;9.826;2023-08-01T03:56:10;3.63;;;2.67;;
20140;SDS011;10231;47.702;9.826;2023-08-01T03:58:36;3.97;;;2.83;;
20140;SDS011;10231;47.702;9.826;2023-08-01T04:01:01;4.03;;;2.97;;
20140;SDS011;10231;47.702;9.826;2023-08-01T04:03:27;3.93;;;2.80;;
20140;SDS011;10231;47.702;9.826;2023-08-01T04:05:53;3.63;;;3.00;;
20140;SDS011;10231;47.702;9.826;2023-08-01T04:08:19;5.83;;;3.57;;
20140;SDS011;10231;47.702;9.826;2023-08-01T04:10:44;3.20;;;3.00;;
20140;SDS011;10231;47.702;9.826;2023-08-01T04:13:10;5.00;;;3.17;;
20140;SDS011;10231;47.702;9.826;2023-08-01T04:15:36;4.53;;;3.53;;
20140;SDS011;10231;47.702;9.826;2023-08-01T04:18:01;5.87;;;3.40;;
20140;SDS011;10231;47.702;9.826;2023-08-01T04:20:27;4.17;;;3.10;;
20140;SDS011;10231;47.702;9.826;2023-08-01T04:22:52;2.97;;;2.77;;
20140;SDS011;10231;47.702;9.826;2023-08-01T04:25:18;3.50;;;3.20;;
20140;SDS011;10231;47.702;9.826;2023-08-01T04:27:43;4.37;;;3.23;;
20140;SDS011;10231;47.702;9.826;2023-08-01T04:30:09;3.90;;;2.87;;
20140;SDS011;10231;47.702;9.826;2023-08-01T04:32:35;5.23;;;2.80;;
20140;SDS011;10231;47.702;9.826;2023-08-01T04:35:01;3.07;;;2.83;;
20140;SDS011;10231;47.702;9.826;2023-08-01T04:37:26;5.30;;;3.20;;
20140;SDS011;10231;47.702;9.826;2023-08-01T04:39:52;3.47;;;3.17;;
20140;SDS011;10231;47.702;9.826;2023-08-01T04:42:17;3.67;;;3.37;;
20140;SDS011;10231;47.702;9.826;2023-08-01T04:44:43;4.07;;;3.60;;
20140;SDS011;10231;47.702;9.826;2023-08-01T04:47:08;3.53;;;3.23;;
20140;SDS011;10231;47.702;9.826;2023-08-01T04:49:34;4.77;;;3.37;;
20140;SDS011;10231;47.702;9.826;2023-08-01T04:51:59;3.63;;;3.27;;
20140;SDS011;10231;47.702;9.826;2023-08-01T04:54:25;3.57;;;3.17;;
20140;SDS011;10231;47.702;9.826;2023-08-01T04:56:51;3.63;;;3.27;;
20140;SDS011;10231;47.702;9.826;2023-08-01T04:59:16;3.43;;;3.13;;
20140;SDS011;10231;47.702;9.826;2023-08-01T05:01:42;3.87;;;3.10;;
20140;SDS011;10231;47.702;9.826;2023-08-01T05:04:07;3.77;;;3.37;;
20140;SDS011;10231;47.702;9.826;2023-08-01T05:06:33;3.90;;;3.50;;
20140;SDS011;10231;47.702;9.826;2023-08-01T05:08:58;3.23;;;2.93;;
20140;SDS011;10231;47.702;9.826;2023-08-01T05:11:25;5.33;;;3.20;;
20140;SDS011;10231;47.702;9.826;2023-08-01T05:13:50;3.53;;;3.10;;
20140;SDS011;10231;47.702;9.826;2023-08-01T05:16:16;4.67;;;3.00;;
20140;SDS011;10231;47.702;9.826;2023-08-01T05:18:41;5.83;;;3.53;;
20140;SDS011;10231;47.702;9.826;2023-08-01T05:21:07;3.83;;;3.40;;
20140;SDS011;10231;47.702;9.826;2023-08-01T05:23:32;3.37;;;3.07;;
20140;SDS011;10231;47.702;9.826;2023-08-01T05:25:58;2.77;;;2.57;;
20140;SDS011;10231;47.702;9.826;2023-08-01T05:28:24;3.53;;;3.00;;
20140;SDS011;10231;47.702;9.826;2023-08-01T05:30:49;4.27;;;3.20;;
20140;SDS011;10231;47.702;9.826;2023-08-01T05:33:15;3.70;;;2.80;;
20140;SDS011;10231;47.702;9.826;2023-08-01T05:35:40;4.40;;;2.83;;
20140;SDS011;10231;47.702;9.826;2023-08-01T05:38:06;4.23;;;2.80;;
20140;SDS011;10231;47.702;9.826;2023-08-01T05:40:31;3.77;;;2.97;;
20140;SDS011;10231;47.702;9.826;2023-08-01T05:42:57;6.23;;;2.63;;
20140;SDS011;10231;47.702;9.826;2023-08-01T05:45:22;3.13;;;2.63;;
20140;SDS011;10231;47.702;9.826;2023-08-01T05:47:48;2.53;;;2.33;;
20140;SDS011;10231;47.702;9.826;2023-08-01T05:50:16;3.43;;;2.70;;
20140;SDS011;10231;47.702;9.826;2023-08-01T05:52:42;4.07;;;2.50;;
20140;SDS011;10231;47.702;9.826;2023-08-01T05:55:07;3.10;;;2.30;;
20140;SDS011;10231;47.702;9.826;2023-08-01T05:57:33;5.40;;;2.47;;
20140;SDS011;10231;47.702;9.826;2023-08-01T05:59:59;3.93;;;2.40;;
20140;SDS011;10231;47.702;9.826;2023-08-01T06:02:25;4.17;;;2.33;;
20140;SDS011;10231;47.702;9.826;2023-08-01T06:04:50;3.13;;;2.27;;
20140;SDS011;10231;47.702;9.826;2023-08-01T06:07:16;5.10;;;2.80;;
20140;SDS011;10231;47.702;9.826;2023-08-01T06:09:47;3.73;;;2.63;;
20140;SDS011;10231;47.702;9.826;2023-08-01T06:12:15;3.47;;;2.37;;
20140;SDS011;10231;47.702;9.826;2023-08-01T06:14:40;4.60;;;2.50;;
20140;SDS011;10231;47.702;9.826;2023-08-01T06:17:06;2.47;;;2.20;;
20140;SDS011;10231;47.702;9.826;2023-08-01T06:19:32;5.47;;;2.73;;
20140;SDS011;10231;47.702;9.826;2023-08-01T06:21:57;4.40;;;2.53;;
20140;SDS011;10231;47.702;9.826;2023-08-01T06:24:23;4.07;;;2.97;;
20140;SDS011;10231;47.702;9.826;2023-08-01T06:26:48;5.63;;;2.50;;
20140;SDS011;10231;47.702;9.826;2023-08-01T06:29:14;5.13;;;2.77;;
20140;SDS011;10231;47.702;9.826;2023-08-01T06:31:39;3.77;;;2.90;;
20140;SDS011;10231;47.702;9.826;2023-08-01T06:34:05;3.37;;;2.97;;
20140;SDS011;10231;47.702;9.826;2023-08-01T06:36:30;2.80;;;2.53;;
20140;SDS011;10231;47.702;9.826;2023-08-01T06:38:57;3.40;;;2.40;;
20140;SDS011;10231;47.702;9.826;2023-08-01T06:41:23;3.00;;;2.13;;
20140;SDS011;10231;47.702;9.826;2023-08-01T06:43:48;2.80;;;2.40;;
20140;SDS011;10231;47.702;9.826;2023-08-01T06:46:14;4.93;;;2.67;;
20140;SDS011;10231;47.702;9.826;2023-08-01T06:48:39;2.40;;;2.20;;
20140;SDS011;10231;47.702;9.826;2023-08-01T06:51:05;2.67;;;2.37;;
20140;SDS011;10231;47.702;9.826;2023-08-01T06:53:30;3.90;;;2.73;;
20140;SDS011;10231;47.702;9.826;2023-08-01T06:55:56;2.80;;;2.57;;
20140;SDS011;10231;47.702;9.826;2023-08-01T06:58:21;3.83;;;2.83;;
20140;SDS011;10231;47.702;9.826;2023-08-01T07:00:47;3.57;;;2.77;;
20140;SDS011;10231;47.702;9.826;2023-08-01T07:03:12;3.77;;;2.73;;
20140;SDS011;10231;47.702;9.826;2023-08-01T07:05:38;4.33;;;2.70;;
20140;SDS011;10231;47.702;9.826;2023-08-01T07:08:04;4.33;;;2.90;;
20140;SDS011;10231;47.702;9.826;2023-08-01T07:10:29;4.53;;;2.93;;
20140;SDS011;10231;47.702;9.826;2023-08-01T07:12:58;3.70;;;2.87;;
20140;SDS011;10231;47.702;9.826;2023-08-01T07:15:24;3.97;;;2.40;;
20140;SDS011;10231;47.702;9.826;2023-08-01T07:17:50;4.87;;;3.07;;
20140;SDS011;10231;47.702;9.826;2023-08-01T07:20:16;3.33;;;3.03;;
20140;SDS011;10231;47.702;9.826;2023-08-01T07:22:42;3.10;;;2.90;;
20140;SDS011;10231;47.702;9.826;2023-08-01T07:25:07;4.73;;;2.80;;
20140;SDS011;10231;47.702;9.826;2023-08-01T07:27:33;5.23;;;3.13;;
20140;SDS011;10231;47.702;9.826;2023-08-01T07:29:59;4.07;;;3.03;;
20140;SDS011;10231;47.702;9.826;2023-08-01T07:32:24;3.13;;;2.83;;
20140;SDS011;10231;47.702;9.826;2023-08-01T07:34:50;3.27;;;2.83;;
20140;SDS011;10231;47.702;9.826;2023-08-01T07:37:15;4.43;;;2.57;;
20140;SDS011;10231;47.702;9.826;2023-08-01T07:39:41;5.23;;;2.80;;
20140;SDS011;10231;47.702;9.826;2023-08-01T07:42:06;3.53;;;3.10;;
20140;SDS011;10231;47.702;9.826;2023-08-01T07:44:32;3.57;;;2.47;;
20140;SDS011;10231;47.702;9.826;2023-08-01T07:46:57;5.43;;;3.17;;
20140;SDS011;10231;47.702;9.826;2023-08-01T07:49:23;6.50;;;3.90;;
20140;SDS011;10231;47.702;9.826;2023-08-01T07:51:48;4.77;;;3.10;;
20140;SDS011;10231;47.702;9.826;2023-08-01T07:54:14;3.00;;;2.70;;
20140;SDS011;10231;47.702;9.826;2023-08-01T07:56:40;3.67;;;3.23;;
20140;SDS011;10231;47.702;9.826;2023-08-01T07:59:05;3.47;;;2.80;;
20140;SDS011;10231;47.702;9.826;2023-08-01T08:01:31;2.97;;;2.67;;
20140;SDS011;10231;47.702;9.826;2023-08-01T08:03:56;6.63;;;3.40;;
20140;SDS011;10231;47.702;9.826;2023-08-01T08:06:22;4.53;;;2.90;;
20140;SDS011;10231;47.702;9.826;2023-08-01T08:08:48;5.33;;;3.07;;
20140;SDS011;10231;47.702;9.826;2023-08-01T08:11:14;3.93;;;3.20;;
20140;SDS011;10231;47.702;9.826;2023-08-01T08:13:41;3.70;;;3.33;;
20140;SDS011;10231;47.702;9.826;2023-08-01T08:16:06;4.97;;;3.03;;
20140;SDS011;10231;47.702;9.826;2023-08-01T08:18:32;4.83;;;3.20;;
20140;SDS011;10231;47.702;9.826;2023-08-01T08:20:58;5.37;;;3.20;;
20140;SDS011;10231;47.702;9.826;2023-08-01T08:23:23;6.40;;;3.10;;
20140;SDS011;10231;47.702;9.826;2023-08-01T08:25:49;5.80;;;3.23;;
20140;SDS011;10231;47.702;9.826;2023-08-01T08:28:16;6.27;;;4.07;;
20140;SDS011;10231;47.702;9.826;2023-08-01T08:30:51;4.90;;;3.33;;
20140;SDS011;10231;47.702;9.826;2023-08-01T08:33:20;4.30;;;3.07;;
20140;SDS011;10231;47.702;9.826;2023-08-01T08:35:46;4.73;;;3.07;;
20140;SDS011;10231;47.702;9.826;2023-08-01T08:38:12;4.30;;;3.17;;
20140;SDS011;10231;47.702;9.826;2023-08-01T08:40:38;5.77;;;3.60;;
20140;SDS011;10231;47.702;9.826;2023-08-01T08:43:08;4.77;;;3.37;;
20140;SDS011;10231;47.702;9.826;2023-08-01T08:45:35;4.07;;;2.70;;
20140;SDS011;10231;47.702;9.826;2023-08-01T08:48:02;5.33;;;3.80;;
20140;SDS011;10231;47.702;9.826;2023-08-01T08:50:34;4.73;;;3.20;;
20140;SDS011;10231;47.702;9.826;2023-08-01T08:53:00;3.63;;;3.13;;
20140;SDS011;10231;47.702;9.826;2023-08-01T08:55:26;4.20;;;3.57;;
20140;SDS011;10231;47.702;9.826;2023-08-01T08:57:53;3.50;;;3.20;;
20140;SDS011;10231;47.702;9.826;2023-08-01T09:00:20;4.33;;;3.40;;
20140;SDS011;10231;47.702;9.826;2023-08-01T09:02:46;4.93;;;3.60;;
20140;SDS011;10231;47.702;9.826;2023-08-01T09:05:12;4.20;;;3.07;;
20140;SDS011;10231;47.702;9.826;2023-08-01T09:07:39;4.47;;;3.40;;
20140;SDS011;10231;47.702;9.826;2023-08-01T09:10:07;4.07;;;3.13;;
20140;SDS011;10231;47.702;9.826;2023-08-01T09:12:34;4.43;;;3.40;;
20140;SDS011;10231;47.702;9.826;2023-08-01T09:15:00;3.10;;;2.80;;
20140;SDS011;10231;47.702;9.826;2023-08-01T09:17:25;2.90;;;2.60;;
20140;SDS011;10231;47.702;9.826;2023-08-01T09:20:04;2.97;;;2.60;;
20140;SDS011;10231;47.702;9.826;2023-08-01T09:22:43;4.03;;;2.73;;
20140;SDS011;10231;47.702;9.826;2023-08-01T09:25:10;3.90;;;3.50;;
20140;SDS011;10231;47.702;9.826;2023-08-01T09:27:36;4.83;;;3.43;;
20140;SDS011;10231;47.702;9.826;2023-08-01T09:30:05;6.20;;;3.53;;
20140;SDS011;10231;47.702;9.826;2023-08-01T09:32:32;4.60;;;3.70;;
20140;SDS011;10231;47.702;9.826;2023-08-01T09:34:59;4.70;;;3.90;;
20140;SDS011;10231;47.702;9.826;2023-08-01T09:37:37;5.30;;;3.97;;
20140;SDS011;10231;47.702;9.826;2023-08-01T09:40:07;4.53;;;3.80;;
20140;SDS011;10231;47.702;9.826;2023-08-01T09:42:45;6.07;;;3.27;;
20140;SDS011;10231;47.702;9.826;2023-08-01T09:45:20;4.40;;;3.83;;
20140;SDS011;10231;47.702;9.826;2023-08-01T09:47:45;4.27;;;3.30;;
20140;SDS011;10231;47.702;9.826;2023-08-01T09:50:11;5.33;;;4.03;;
20140;SDS011;10231;47.702;9.826;2023-08-01T09:52:45;4.40;;;4.00;;
20140;SDS011;10231;47.702;9.826;2023-08-01T09:55:17;5.50;;;4.30;;
20140;SDS011;10231;47.702;9.826;2023-08-01T09:57:50;4.90;;;4.33;;
20140;SDS011;10231;47.702;9.826;2023-08-01T10:00:18;5.30;;;3.93;;
20140;SDS011;10231;47.702;9.826;2023-08-01T10:02:43;6.13;;;4.43;;
20140;SDS011;10231;47.702;9.826;2023-08-01T10:05:10;5.97;;;4.73;;
20140;SDS011;10231;47.702;9.826;2023-08-01T10:07:37;5.57;;;4.50;;
20140;SDS011;10231;47.702;9.826;2023-08-01T10:10:06;5.77;;;4.53;;
20140;SDS011;10231;47.702;9.826;2023-08-01T10:12:32;7.23;;;4.47;;
20140;SDS011;10231;47.702;9.826;2023-08-01T10:14:58;7.40;;;4.00;;
20140;SDS011;10231;47.702;9.826;2023-08-01T10:17:25;6.43;;;4.30;;
20140;SDS011;10231;47.702;9.826;2023-08-01T10:19:51;6.87;;;4.20;;
20140;SDS011;10231;47.702;9.826;2023-08-01T10:22:18;7.13;;;4.77;;
20140;SDS011;10231;47.702;9.826;2023-08-01T10:24:45;5.33;;;3.90;;
20140;SDS011;10231;47.702;9.826;2023-08-01T10:27:18;6.43;;;3.77;;
20140;SDS011;10231;47.702;9.826;2023-08-01T10:29:44;5.20;;;4.10;;
20140;SDS011;10231;47.702;9.826;2023-08-01T10:32:11;3.93;;;3.40;;
20140;SDS011;10231;47.702;9.826;2023-08-01T10:34:37;5.03;;;3.33;;
20140;SDS011;10231;47.702;9.826;2023-08-01T10:37:02;4.67;;;3.27;;
20140;SDS011;10231;47.702;9.826;2023-08-01T10:39:28;3.47;;;2.80;;
20140;SDS011;10231;47.702;9.826;2023-08-01T10:41:57;4.33;;;3.10;;
20140;SDS011;10231;47.702;9.826;2023-08-01T10:44:30;4.00;;;3.37;;
20140;SDS011;10231;47.702;9.826;2023-08-01T10:47:01;3.23;;;2.93;;
20140;SDS011;10231;47.702;9.826;2023-08-01T10:49:41;5.70;;;3.80;;
20140;SDS011;10231;47.702;9.826;2023-08-01T10:52:17;4.70;;;3.57;;
20140;SDS011;10231;47.702;9.826;2023-08-01T10:54:43;5.53;;;3.57;;
20140;SDS011;10231;47.702;9.826;2023-08-01T10:57:09;5.03;;;3.20;;
20140;SDS011;10231;47.702;9.826;2023-08-01T10:59:43;4.40;;;3.60;;
20140;SDS011;10231;47.702;9.826;2023-08-01T11:02:09;4.17;;;3.77;;
20140;SDS011;10231;47.702;9.826;2023-08-01T11:04:35;4.00;;;3.60;;
20140;SDS011;10231;47.702;9.826;2023-08-01T11:07:04;4.70;;;3.73;;
20140;SDS011;10231;47.702;9.826;2023-08-01T11:09:29;5.10;;;3.60;;
20140;SDS011;10231;47.702;9.826;2023-08-01T11:11:56;5.10;;;3.37;;
20140;SDS011;10231;47.702;9.826;2023-08-01T11:14:24;4.17;;;3.33;;
20140;SDS011;10231;47.702;9.826;2023-08-01T11:16:53;3.63;;;3.20;;
20140;SDS011;10231;47.702;9.826;2023-08-01T11:19:27;4.10;;;3.30;;
20140;SDS011;10231;47.702;9.826;2023-08-01T11:21:54;3.93;;;3.53;;
20140;SDS011;10231;47.702;9.826;2023-08-01T11:24:25;5.07;;;4.00;;
20140;SDS011;10231;47.702;9.826;2023-08-01T11:26:52;5.40;;;3.57;;
20140;SDS011;10231;47.702;9.826;2023-08-01T11:29:19;4.13;;;3.50;;
20140;SDS011;10231;47.702;9.826;2023-08-01T11:31:54;4.60;;;3.90;;
20140;SDS011;10231;47.702;9.826;2023-08-01T11:34:22;5.20;;;3.80;;
20140;SDS011;10231;47.702;9.826;2023-08-01T11:36:48;6.10;;;3.67;;
20140;SDS011;10231;47.702;9.826;2023-08-01T11:39:14;4.20;;;3.43;;
20140;SDS011;10231;47.702;9.826;2023-08-01T11:41:41;3.90;;;3.50;;
20140;SDS011;10231;47.702;9.826;2023-08-01T11:44:07;5.00;;;3.80;;
20140;SDS011;10231;47.702;9.826;2023-08-01T11:46:34;4.20;;;3.63;;
20140;SDS011;10231;47.702;9.826;2023-08-01T11:49:03;4.90;;;3.10;;
20140;SDS011;10231;47.702;9.826;2023-08-01T11:51:30;3.93;;;3.13;;
20140;SDS011;10231;47.702;9.826;2023-08-01T11:54:05;2.90;;;2.70;;
20140;SDS011;10231;47.702;9.826;2023-08-01T11:56:32;2.70;;;2.50;;
20140;SDS011;10231;47.702;9.826;2023-08-01T11:58:58;2.67;;;2.23;;
20140;SDS011;10231;47.702;9.826;2023-08-01T12:01:24;2.60;;;1.97;;
20140;SDS011;10231;47.702;9.826;2023-08-01T12:03:50;3.10;;;2.10;;
20140;SDS011;10231;47.702;9.826;2023-08-01T12:06:18;2.83;;;2.30;;
20140;SDS011;10231;47.702;9.826;2023-08-01T12:08:46;2.10;;;1.90;;
20140;SDS011;10231;47.702;9.826;2023-08-01T12:11:19;4.00;;;2.43;;
20140;SDS011;10231;47.702;9.826;2023-08-01T12:16:32;2.30;;;1.60;;
20140;SDS011;10231;47.702;9.826;2023-08-01T12:18:57;2.67;;;2.00;;
20140;SDS011;10231;47.702;9.826;2023-08-01T12:21:23;2.40;;;1.63;;
20140;SDS011;10231;47.702;9.826;2023-08-01T12:23:49;2.47;;;2.20;;
20140;SDS011;10231;47.702;9.826;2023-08-01T12:26:14;1.70;;;1.57;;
20140;SDS011;10231;47.702;9.826;2023-08-01T12:28:40;1.90;;;1.70;;
20140;SDS011;10231;47.702;9.826;2023-08-01T12:31:05;1.93;;;1.67;;
20140;SDS011;10231;47.702;9.826;2023-08-01T12:33:32;1.83;;;1.50;;
20140;SDS011;10231;47.702;9.826;2023-08-01T12:36:02;2.30;;;1.83;;
20140;SDS011;10231;47.702;9.826;2023-08-01T12:38:28;2.67;;;1.87;;
20140;SDS011;10231;47.702;9.826;2023-08-01T12:40:54;2.23;;;1.60;;
20140;SDS011;10231;47.702;9.826;2023-08-01T12:43:19;2.07;;;1.40;;
20140;SDS011;10231;47.702;9.826;2023-08-01T12:45:46;2.37;;;1.47;;
20140;SDS011;10231;47.702;9.826;2023-08-01T12:48:12;2.03;;;1.60;;
20140;SDS011;10231;47.702;9.826;2023-08-01T12:50:38;1.60;;;1.50;;
20140;SDS011;10231;47.702;9.826;2023-08-01T12:53:03;2.30;;;1.53;;
20140;SDS011;10231;47.702;9.826;2023-08-01T12:55:29;1.57;;;1.47;;
20140;SDS011;10231;47.702;9.826;2023-08-01T12:57:54;1.57;;;1.47;;
20140;SDS011;10231;47.702;9.826;2023-08-01T13:00:20;1.50;;;1.33;;
20140;SDS011;10231;47.702;9.826;2023-08-01T13:02:46;1.13;;;1.00;;
20140;SDS011;10231;47.702;9.826;2023-08-01T13:05:12;1.53;;;1.43;;
20140;SDS011;10231;47.702;9.826;2023-08-01T13:07:37;1.17;;;1.10;;
20140;SDS011;10231;47.702;9.826;2023-08-01T13:10:03;1.73;;;1.20;;
20140;SDS011;10231;47.702;9.826;2023-08-01T13:12:29;1.30;;;1.20;;
20140;SDS011;10231;47.702;9.826;2023-08-01T13:14:54;1.27;;;0.93;;
20140;SDS011;10231;47.702;9.826;2023-08-01T13:17:20;1.90;;;1.27;;
20140;SDS011;10231;47.702;9.826;2023-08-01T13:19:46;1.67;;;1.03;;
20140;SDS011;10231;47.702;9.826;2023-08-01T13:22:11;1.27;;;1.17;;
20140;SDS011;10231;47.702;9.826;2023-08-01T13:24:37;3.57;;;1.87;;
20140;SDS011;10231;47.702;9.826;2023-08-01T13:27:04;1.90;;;0.93;;
20140;SDS011;10231;47.702;9.826;2023-08-01T13:29:29;1.33;;;0.67;;
20140;SDS011;10231;47.702;9.826;2023-08-01T13:31:55;1.37;;;0.93;;
20140;SDS011;10231;47.702;9.826;2023-08-01T13:34:20;1.50;;;0.90;;
20140;SDS011;10231;47.702;9.826;2023-08-01T13:36:46;0.90;;;0.90;;
20140;SDS011;10231;47.702;9.826;2023-08-01T13:39:12;1.03;;;1.00;;
20140;SDS011;10231;47.702;9.826;2023-08-01T13:41:37;1.83;;;0.97;;
20140;SDS011;10231;47.702;9.826;2023-08-01T13:44:03;3.40;;;1.57;;
20140;SDS011;10231;47.702;9.826;2023-08-01T13:46:28;2.10;;;0.80;;
20140;SDS011;10231;47.702;9.826;2023-08-01T13:48:54;1.53;;;1.03;;
20140;SDS011;10231;47.702;9.826;2023-08-01T13:51:20;1.13;;;0.90;;
20140;SDS011;10231;47.702;9.826;2023-08-01T13:53:45;0.70;;;0.70;;
20140;SDS011;10231;47.702;9.826;2023-08-01T13:56:11;1.70;;;1.00;;
20140;SDS011;10231;47.702;9.826;2023-08-01T13:58:40;0.90;;;0.80;;
20140;SDS011;10231;47.702;9.826;2023-08-01T14:01:07;2.50;;;1.00;;
20140;SDS011;10231;47.702;9.826;2023-08-01T14:03:34;1.13;;;1.00;;
20140;SDS011;10231;47.702;9.826;2023-08-01T14:06:06;1.17;;;1.00;;
20140;SDS011;10231;47.702;9.826;2023-08-01T14:08:33;1.37;;;1.07;;
20140;SDS011;10231;47.702;9.826;2023-08-01T14:10:58;2.50;;;0.90;;
20140;SDS011;10231;47.702;9.826;2023-08-01T14:13:24;1.07;;;0.80;;
20140;SDS011;10231;47.702;9.826;2023-08-01T14:15:50;1.37;;;0.90;;
20140;SDS011;10231;47.702;9.826;2023-08-01T14:18:16;0.87;;;0.87;;
20140;SDS011;10231;47.702;9.826;2023-08-01T14:20:42;1.27;;;1.17;;
20140;SDS011;10231;47.702;9.826;2023-08-01T14:23:07;1.13;;;1.03;;
20140;SDS011;10231;47.702;9.826;2023-08-01T14:25:34;1.13;;;1.00;;
20140;SDS011;10231;47.702;9.826;2023-08-01T14:27:59;0.80;;;0.80;;
20140;SDS011;10231;47.702;9.826;2023-08-01T14:30:25;0.67;;;0.67;;
20140;SDS011;10231;47.702;9.826;2023-08-01T14:32:51;1.10;;;1.00;;
20140;SDS011;10231;47.702;9.826;2023-08-01T14:35:16;1.53;;;1.10;;
20140;SDS011;10231;47.702;9.826;2023-08-01T14:37:42;2.03;;;0.83;;
20140;SDS011;10231;47.702;9.826;2023-08-01T14:40:12;1.57;;;1.00;;
20140;SDS011;10231;47.702;9.826;2023-08-01T14:42:38;2.27;;;0.80;;
20140;SDS011;10231;47.702;9.826;2023-08-01T14:45:04;0.73;;;0.73;;